sensor_id;sensor_type;location;lat;lon;timestamp;temperature;humidity
15364;DHT22;7781;49.690;6.472;2023-09-18T00:01:28;17.80;99.90
15364;DHT22;7781;49.690;6.472;2023-09-18T00:03:57;17.90;99.90
15364;DHT22;7781;49.690;6.472;2023-09-18T00:06:26;17.90;99.90
15364;DHT22;7781;49.690;6.472;2023-09-18T00:08:55;17.90;99.90
15364;DHT22;7781;49.690;6.472;2023-09-18T00:11:23;17.90;99.90
15364;DHT22;7781;49.690;6.472;2023-09-18T00:13:52;18.00;99.90
15364;DHT22;7781;49.690;6.472;2023-09-18T00:16:22;17.90;99.90
15364;DHT22;7781;49.690;6.472;2023-09-18T00:18:54;18.00;99.90
15364;DHT22;7781;49.690;6.472;2023-09-18T00:21:22;18.00;99.90
15364;DHT22;7781;49.690;6.472;2023-09-18T00:23:52;18.10;99.90
15364;DHT22;7781;49.690;6.472;2023-09-18T00:26:20;18.20;99.90
15364;DHT22;7781;49.690;6.472;2023-09-18T00:28:52;18.40;99.90
15364;DHT22;7781;49.690;6.472;2023-09-18T00:31:23;18.50;99.90
15364;DHT22;7781;49.690;6.472;2023-09-18T00:33:52;18.70;99.90
15364;DHT22;7781;49.690;6.472;2023-09-18T00:36:20;18.90;99.90
15364;DHT22;7781;49.690;6.472;2023-09-18T00:38:48;18.90;99.90
15364;DHT22;7781;49.690;6.472;2023-09-18T00:41:17;18.90;99.90
15364;DHT22;7781;49.690;6.472;2023-09-18T00:43:47;18.80;99.90
15364;DHT22;7781;49.690;6.472;2023-09-18T00:46:15;18.80;99.90
15364;DHT22;7781;49.690;6.472;2023-09-18T00:48:46;18.90;99.90
15364;DHT22;7781;49.690;6.472;2023-09-18T00:51:15;18.90;99.90
15364;DHT22;7781;49.690;6.472;2023-09-18T00:53:46;18.90;99.90
15364;DHT22;7781;49.690;6.472;2023-09-18T00:56:17;18.90;99.90
15364;DHT22;7781;49.690;6.472;2023-09-18T00:58:51;18.80;99.90
15364;DHT22;7781;49.690;6.472;2023-09-18T01:01:21;18.90;99.90
15364;DHT22;7781;49.690;6.472;2023-09-18T01:03:52;18.80;99.90
15364;DHT22;7781;49.690;6.472;2023-09-18T01:06:24;18.80;99.90
15364;DHT22;7781;49.690;6.472;2023-09-18T01:08:55;18.80;99.90
15364;DHT22;7781;49.690;6.472;2023-09-18T01:11:43;18.80;99.90
15364;DHT22;7781;49.690;6.472;2023-09-18T01:14:19;18.80;99.90
15364;DHT22;7781;49.690;6.472;2023-09-18T01:16:53;18.80;99.90
15364;DHT22;7781;49.690;6.472;2023-09-18T01:19:37;18.80;99.90
15364;DHT22;7781;49.690;6.472;2023-09-18T01:22:06;18.70;99.90
15364;DHT22;7781;49.690;6.472;2023-09-18T01:24:38;18.70;99.90
15364;DHT22;7781;49.690;6.472;2023-09-18T01:27:09;18.70;99.90
15364;DHT22;7781;49.690;6.472;2023-09-18T01:29:40;18.70;99.90
15364;DHT22;7781;49.690;6.472;2023-09-18T01:32:08;18.70;99.90
15364;DHT22;7781;49.690;6.472;2023-09-18T01:34:39;18.60;99.90
15364;DHT22;7781;49.690;6.472;2023-09-18T01:37:10;18.60;99.90
15364;DHT22;7781;49.690;6.472;2023-09-18T01:39:41;18.50;99.90
15364;DHT22;7781;49.690;6.472;2023-09-18T01:42:10;18.50;99.90
15364;DHT22;7781;49.690;6.472;2023-09-18T01:44:39;18.50;99.90
15364;DHT22;7781;49.690;6.472;2023-09-18T01:47:09;18.60;99.90
15364;DHT22;7781;49.690;6.472;2023-09-18T01:49:39;18.60;99.90
15364;DHT22;7781;49.690;6.472;2023-09-18T01:52:09;18.60;99.90
15364;DHT22;7781;49.690;6.472;2023-09-18T01:54:38;18.70;99.90
15364;DHT22;7781;49.690;6.472;2023-09-18T01:57:09;18.70;99.90
15364;DHT22;7781;49.690;6.472;2023-09-18T01:59:40;18.70;99.90
15364;DHT22;7781;49.690;6.472;2023-09-18T02:02:09;18.70;99.90
15364;DHT22;7781;49.690;6.472;2023-09-18T02:04:44;18.60;99.90
15364;DHT22;7781;49.690;6.472;2023-09-18T02:07:33;18.60;99.90
15364;DHT22;7781;49.690;6.472;2023-09-18T02:10:05;18.50;99.90
15364;DHT22;7781;49.690;6.472;2023-09-18T02:12:37;18.40;99.90
15364;DHT22;7781;49.690;6.472;2023-09-18T02:15:07;18.30;99.90
15364;DHT22;7781;49.690;6.472;2023-09-18T02:17:38;18.20;99.90
15364;DHT22;7781;49.690;6.472;2023-09-18T02:20:08;18.10;99.90
15364;DHT22;7781;49.690;6.472;2023-09-18T02:22:39;18.10;99.90
15364;DHT22;7781;49.690;6.472;2023-09-18T02:25:09;18.10;99.90
15364;DHT22;7781;49.690;6.472;2023-09-18T02:27:39;18.00;99.90
15364;DHT22;7781;49.690;6.472;2023-09-18T02:30:10;17.90;99.90
15364;DHT22;7781;49.690;6.472;2023-09-18T02:32:39;17.90;99.90
15364;DHT22;7781;49.690;6.472;2023-09-18T02:35:09;17.90;99.90
15364;DHT22;7781;49.690;6.472;2023-09-18T02:37:38;18.00;99.90
15364;DHT22;7781;49.690;6.472;2023-09-18T02:40:07;18.00;99.90
15364;DHT22;7781;49.690;6.472;2023-09-18T02:42:38;18.10;99.90
15364;DHT22;7781;49.690;6.472;2023-09-18T02:45:07;18.20;99.90
15364;DHT22;7781;49.690;6.472;2023-09-18T02:47:36;18.20;99.90
15364;DHT22;7781;49.690;6.472;2023-09-18T02:50:09;18.30;99.90
15364;DHT22;7781;49.690;6.472;2023-09-18T02:52:40;18.30;99.90
15364;DHT22;7781;49.690;6.472;2023-09-18T02:55:10;18.30;99.90
15364;DHT22;7781;49.690;6.472;2023-09-18T02:57:42;18.30;99.90
15364;DHT22;7781;49.690;6.472;2023-09-18T03:00:12;18.30;99.90
15364;DHT22;7781;49.690;6.472;2023-09-18T03:02:41;18.40;99.90
15364;DHT22;7781;49.690;6.472;2023-09-18T03:05:09;18.40;99.90
15364;DHT22;7781;49.690;6.472;2023-09-18T03:07:39;18.30;99.90
15364;DHT22;7781;49.690;6.472;2023-09-18T03:10:08;18.30;99.90
15364;DHT22;7781;49.690;6.472;2023-09-18T03:12:43;18.40;99.90
15364;DHT22;7781;49.690;6.472;2023-09-18T03:15:11;18.40;99.90
15364;DHT22;7781;49.690;6.472;2023-09-18T03:17:43;18.40;99.90
15364;DHT22;7781;49.690;6.472;2023-09-18T03:20:12;18.40;99.90
15364;DHT22;7781;49.690;6.472;2023-09-18T03:22:43;18.30;99.90
15364;DHT22;7781;49.690;6.472;2023-09-18T03:25:11;18.40;99.90
15364;DHT22;7781;49.690;6.472;2023-09-18T03:27:40;18.40;99.90
15364;DHT22;7781;49.690;6.472;2023-09-18T03:30:11;18.40;99.90
15364;DHT22;7781;49.690;6.472;2023-09-18T03:32:43;18.40;99.90
15364;DHT22;7781;49.690;6.472;2023-09-18T03:35:12;18.30;99.90
15364;DHT22;7781;49.690;6.472;2023-09-18T03:37:46;18.30;99.90
15364;DHT22;7781;49.690;6.472;2023-09-18T03:40:16;18.30;99.90
15364;DHT22;7781;49.690;6.472;2023-09-18T03:42:46;18.20;99.90
15364;DHT22;7781;49.690;6.472;2023-09-18T03:45:17;18.30;99.90
15364;DHT22;7781;49.690;6.472;2023-09-18T03:47:48;18.20;99.90
15364;DHT22;7781;49.690;6.472;2023-09-18T03:50:18;18.20;99.90
15364;DHT22;7781;49.690;6.472;2023-09-18T03:52:48;18.10;99.90
15364;DHT22;7781;49.690;6.472;2023-09-18T03:55:17;18.10;99.90
15364;DHT22;7781;49.690;6.472;2023-09-18T03:57:46;18.10;99.90
15364;DHT22;7781;49.690;6.472;2023-09-18T04:00:19;18.10;99.90
15364;DHT22;7781;49.690;6.472;2023-09-18T04:02:48;18.20;99.90
15364;DHT22;7781;49.690;6.472;2023-09-18T04:05:19;18.20;99.90
15364;DHT22;7781;49.690;6.472;2023-09-18T04:07:47;18.10;99.90
15364;DHT22;7781;49.690;6.472;2023-09-18T04:10:17;18.00;99.90
15364;DHT22;7781;49.690;6.472;2023-09-18T04:12:51;18.00;99.90
15364;DHT22;7781;49.690;6.472;2023-09-18T04:15:23;17.90;99.90
15364;DHT22;7781;49.690;6.472;2023-09-18T04:17:53;17.90;99.90
15364;DHT22;7781;49.690;6.472;2023-09-18T04:20:22;17.90;99.90
15364;DHT22;7781;49.690;6.472;2023-09-18T04:23:20;17.90;99.90
15364;DHT22;7781;49.690;6.472;2023-09-18T04:25:50;17.90;99.90
15364;DHT22;7781;49.690;6.472;2023-09-18T04:28:21;17.90;99.90
15364;DHT22;7781;49.690;6.472;2023-09-18T04:30:51;17.90;99.90
15364;DHT22;7781;49.690;6.472;2023-09-18T04:33:21;17.90;99.90
15364;DHT22;7781;49.690;6.472;2023-09-18T04:35:51;18.00;99.90
15364;DHT22;7781;49.690;6.472;2023-09-18T04:38:19;17.90;99.90
15364;DHT22;7781;49.690;6.472;2023-09-18T04:40:48;18.00;99.90
15364;DHT22;7781;49.690;6.472;2023-09-18T04:43:18;18.00;99.90
15364;DHT22;7781;49.690;6.472;2023-09-18T04:45:46;18.00;99.90
15364;DHT22;7781;49.690;6.472;2023-09-18T04:48:17;17.90;99.90
15364;DHT22;7781;49.690;6.472;2023-09-18T04:50:46;18.00;99.90
15364;DHT22;7781;49.690;6.472;2023-09-18T04:53:15;18.00;99.90
15364;DHT22;7781;49.690;6.472;2023-09-18T04:55:43;17.90;99.90
15364;DHT22;7781;49.690;6.472;2023-09-18T04:58:13;17.90;99.90
15364;DHT22;7781;49.690;6.472;2023-09-18T05:00:42;17.90;99.90
15364;DHT22;7781;49.690;6.472;2023-09-18T05:03:12;17.90;99.90
15364;DHT22;7781;49.690;6.472;2023-09-18T05:05:43;17.90;99.90
15364;DHT22;7781;49.690;6.472;2023-09-18T05:08:12;17.90;99.90
15364;DHT22;7781;49.690;6.472;2023-09-18T05:10:40;17.90;99.90
15364;DHT22;7781;49.690;6.472;2023-09-18T05:13:11;17.90;99.90
15364;DHT22;7781;49.690;6.472;2023-09-18T05:15:40;17.90;99.90
15364;DHT22;7781;49.690;6.472;2023-09-18T05:18:09;17.90;99.90
15364;DHT22;7781;49.690;6.472;2023-09-18T05:20:38;17.90;99.90
15364;DHT22;7781;49.690;6.472;2023-09-18T05:23:08;17.90;99.90
15364;DHT22;7781;49.690;6.472;2023-09-18T05:25:36;18.00;99.90
15364;DHT22;7781;49.690;6.472;2023-09-18T05:28:06;17.90;99.90
15364;DHT22;7781;49.690;6.472;2023-09-18T05:30:35;17.90;99.90
15364;DHT22;7781;49.690;6.472;2023-09-18T05:33:07;18.00;99.90
15364;DHT22;7781;49.690;6.472;2023-09-18T05:35:43;18.00;99.90
15364;DHT22;7781;49.690;6.472;2023-09-18T05:38:14;18.00;99.90
15364;DHT22;7781;49.690;6.472;2023-09-18T05:40:41;18.00;99.90
15364;DHT22;7781;49.690;6.472;2023-09-18T05:43:10;18.00;99.90
15364;DHT22;7781;49.690;6.472;2023-09-18T05:45:39;18.10;99.90
15364;DHT22;7781;49.690;6.472;2023-09-18T05:48:08;18.10;99.90
15364;DHT22;7781;49.690;6.472;2023-09-18T05:50:38;18.00;99.90
15364;DHT22;7781;49.690;6.472;2023-09-18T05:53:09;18.00;99.90
15364;DHT22;7781;49.690;6.472;2023-09-18T05:55:40;18.10;99.90
15364;DHT22;7781;49.690;6.472;2023-09-18T05:58:09;18.00;99.90
15364;DHT22;7781;49.690;6.472;2023-09-18T06:00:38;18.10;99.90
15364;DHT22;7781;49.690;6.472;2023-09-18T06:03:06;18.10;99.90
15364;DHT22;7781;49.690;6.472;2023-09-18T06:05:39;18.10;99.90
15364;DHT22;7781;49.690;6.472;2023-09-18T06:08:08;18.10;99.90
15364;DHT22;7781;49.690;6.472;2023-09-18T06:10:37;18.10;99.90
15364;DHT22;7781;49.690;6.472;2023-09-18T06:13:07;18.10;99.90
15364;DHT22;7781;49.690;6.472;2023-09-18T06:16:12;18.10;99.90
15364;DHT22;7781;49.690;6.472;2023-09-18T06:18:41;18.10;99.90
15364;DHT22;7781;49.690;6.472;2023-09-18T06:21:12;18.10;99.90
15364;DHT22;7781;49.690;6.472;2023-09-18T06:23:42;18.20;99.90
15364;DHT22;7781;49.690;6.472;2023-09-18T06:26:11;18.10;99.90
15364;DHT22;7781;49.690;6.472;2023-09-18T06:28:42;18.20;99.90
15364;DHT22;7781;49.690;6.472;2023-09-18T06:31:11;18.20;99.90
15364;DHT22;7781;49.690;6.472;2023-09-18T06:33:39;18.20;99.90
15364;DHT22;7781;49.690;6.472;2023-09-18T06:36:08;18.20;99.90
15364;DHT22;7781;49.690;6.472;2023-09-18T06:38:36;18.20;99.90
15364;DHT22;7781;49.690;6.472;2023-09-18T06:41:04;18.30;99.90
15364;DHT22;7781;49.690;6.472;2023-09-18T06:43:33;18.30;99.90
15364;DHT22;7781;49.690;6.472;2023-09-18T06:46:07;18.30;99.90
15364;DHT22;7781;49.690;6.472;2023-09-18T06:48:35;18.30;99.90
15364;DHT22;7781;49.690;6.472;2023-09-18T06:51:04;18.30;99.90
15364;DHT22;7781;49.690;6.472;2023-09-18T06:53:33;18.30;99.90
15364;DHT22;7781;49.690;6.472;2023-09-18T06:56:02;18.30;99.90
15364;DHT22;7781;49.690;6.472;2023-09-18T06:58:32;18.30;99.90
15364;DHT22;7781;49.690;6.472;2023-09-18T07:01:01;18.30;99.90
15364;DHT22;7781;49.690;6.472;2023-09-18T07:03:32;18.30;99.90
15364;DHT22;7781;49.690;6.472;2023-09-18T07:06:05;18.30;99.90
15364;DHT22;7781;49.690;6.472;2023-09-18T07:08:33;18.30;99.90
15364;DHT22;7781;49.690;6.472;2023-09-18T07:11:03;18.30;99.90
15364;DHT22;7781;49.690;6.472;2023-09-18T07:13:47;18.30;99.90
15364;DHT22;7781;49.690;6.472;2023-09-18T07:16:15;18.30;99.90
15364;DHT22;7781;49.690;6.472;2023-09-18T07:18:45;18.30;99.90
15364;DHT22;7781;49.690;6.472;2023-09-18T07:21:14;18.40;99.90
15364;DHT22;7781;49.690;6.472;2023-09-18T07:23:42;18.40;99.90
15364;DHT22;7781;49.690;6.472;2023-09-18T07:26:13;18.30;99.90
15364;DHT22;7781;49.690;6.472;2023-09-18T07:28:42;18.30;99.90
15364;DHT22;7781;49.690;6.472;2023-09-18T07:31:12;18.30;99.90
15364;DHT22;7781;49.690;6.472;2023-09-18T07:33:41;18.30;99.90
15364;DHT22;7781;49.690;6.472;2023-09-18T07:36:11;18.30;99.90
15364;DHT22;7781;49.690;6.472;2023-09-18T07:38:42;18.30;99.90
15364;DHT22;7781;49.690;6.472;2023-09-18T07:41:13;18.30;99.90
15364;DHT22;7781;49.690;6.472;2023-09-18T07:43:43;18.30;99.90
15364;DHT22;7781;49.690;6.472;2023-09-18T07:46:12;18.30;99.90
15364;DHT22;7781;49.690;6.472;2023-09-18T07:48:40;18.30;99.90
15364;DHT22;7781;49.690;6.472;2023-09-18T07:51:12;18.30;99.90
15364;DHT22;7781;49.690;6.472;2023-09-18T07:53:43;18.30;99.90
15364;DHT22;7781;49.690;6.472;2023-09-18T07:56:12;18.30;99.90
15364;DHT22;7781;49.690;6.472;2023-09-18T07:58:41;18.30;99.90
15364;DHT22;7781;49.690;6.472;2023-09-18T08:01:10;18.30;99.90
15364;DHT22;7781;49.690;6.472;2023-09-18T08:03:39;18.40;99.90
15364;DHT22;7781;49.690;6.472;2023-09-18T08:06:08;18.40;99.90
15364;DHT22;7781;49.690;6.472;2023-09-18T08:08:40;18.40;99.90
15364;DHT22;7781;49.690;6.472;2023-09-18T08:11:09;18.40;99.90
15364;DHT22;7781;49.690;6.472;2023-09-18T08:13:38;18.40;99.90
15364;DHT22;7781;49.690;6.472;2023-09-18T08:16:07;18.40;99.90
15364;DHT22;7781;49.690;6.472;2023-09-18T08:18:38;18.40;99.90
15364;DHT22;7781;49.690;6.472;2023-09-18T08:21:08;18.40;99.90
15364;DHT22;7781;49.690;6.472;2023-09-18T08:23:40;18.50;99.90
15364;DHT22;7781;49.690;6.472;2023-09-18T08:26:08;18.40;99.90
15364;DHT22;7781;49.690;6.472;2023-09-18T08:28:37;18.50;99.90
15364;DHT22;7781;49.690;6.472;2023-09-18T08:31:10;18.50;99.90
15364;DHT22;7781;49.690;6.472;2023-09-18T08:33:39;18.50;99.90
15364;DHT22;7781;49.690;6.472;2023-09-18T08:36:07;18.50;99.90
15364;DHT22;7781;49.690;6.472;2023-09-18T08:38:35;18.50;99.90
15364;DHT22;7781;49.690;6.472;2023-09-18T08:41:05;18.50;99.90
15364;DHT22;7781;49.690;6.472;2023-09-18T08:43:37;18.60;99.90
15364;DHT22;7781;49.690;6.472;2023-09-18T08:46:08;18.60;99.90
15364;DHT22;7781;49.690;6.472;2023-09-18T08:48:37;18.70;99.90
15364;DHT22;7781;49.690;6.472;2023-09-18T08:51:08;18.60;99.90
15364;DHT22;7781;49.690;6.472;2023-09-18T08:53:38;18.60;99.90
15364;DHT22;7781;49.690;6.472;2023-09-18T08:56:09;18.60;99.90
15364;DHT22;7781;49.690;6.472;2023-09-18T08:58:40;18.60;99.90
15364;DHT22;7781;49.690;6.472;2023-09-18T09:01:10;18.60;99.90
15364;DHT22;7781;49.690;6.472;2023-09-18T09:03:40;18.60;99.90
15364;DHT22;7781;49.690;6.472;2023-09-18T09:06:09;18.60;99.90
15364;DHT22;7781;49.690;6.472;2023-09-18T09:08:38;18.60;99.90
15364;DHT22;7781;49.690;6.472;2023-09-18T09:11:10;18.60;99.90
15364;DHT22;7781;49.690;6.472;2023-09-18T09:13:38;18.60;99.90
15364;DHT22;7781;49.690;6.472;2023-09-18T09:16:14;18.70;99.90
15364;DHT22;7781;49.690;6.472;2023-09-18T09:18:48;18.70;99.90
15364;DHT22;7781;49.690;6.472;2023-09-18T09:21:19;18.80;99.90
15364;DHT22;7781;49.690;6.472;2023-09-18T09:23:53;18.90;99.90
15364;DHT22;7781;49.690;6.472;2023-09-18T09:26:24;18.90;99.90
15364;DHT22;7781;49.690;6.472;2023-09-18T09:28:54;18.90;99.90
15364;DHT22;7781;49.690;6.472;2023-09-18T09:31:24;18.90;99.90
15364;DHT22;7781;49.690;6.472;2023-09-18T09:33:53;19.00;99.90
15364;DHT22;7781;49.690;6.472;2023-09-18T09:36:22;19.00;99.90
15364;DHT22;7781;49.690;6.472;2023-09-18T09:38:55;19.00;99.90
15364;DHT22;7781;49.690;6.472;2023-09-18T09:41:26;19.00;99.90
15364;DHT22;7781;49.690;6.472;2023-09-18T09:43:56;19.10;99.90
15364;DHT22;7781;49.690;6.472;2023-09-18T09:46:27;19.10;99.90
15364;DHT22;7781;49.690;6.472;2023-09-18T09:49:00;19.00;99.90
15364;DHT22;7781;49.690;6.472;2023-09-18T09:51:29;19.00;99.90
15364;DHT22;7781;49.690;6.472;2023-09-18T09:54:00;19.00;99.90
15364;DHT22;7781;49.690;6.472;2023-09-18T09:56:44;19.10;99.90
15364;DHT22;7781;49.690;6.472;2023-09-18T09:59:14;19.10;99.90
15364;DHT22;7781;49.690;6.472;2023-09-18T10:01:45;19.20;99.90
15364;DHT22;7781;49.690;6.472;2023-09-18T10:04:18;19.50;99.90
15364;DHT22;7781;49.690;6.472;2023-09-18T10:06:51;19.70;99.90
15364;DHT22;7781;49.690;6.472;2023-09-18T10:09:21;20.10;99.90
15364;DHT22;7781;49.690;6.472;2023-09-18T10:11:54;20.40;99.90
15364;DHT22;7781;49.690;6.472;2023-09-18T10:14:30;20.80;99.90
15364;DHT22;7781;49.690;6.472;2023-09-18T10:17:19;20.90;99.90
15364;DHT22;7781;49.690;6.472;2023-09-18T10:19:53;21.10;99.90
15364;DHT22;7781;49.690;6.472;2023-09-18T10:22:32;21.30;99.90
15364;DHT22;7781;49.690;6.472;2023-09-18T10:25:11;21.40;99.90
15364;DHT22;7781;49.690;6.472;2023-09-18T10:27:47;21.50;99.90
15364;DHT22;7781;49.690;6.472;2023-09-18T10:30:16;21.60;99.90
15364;DHT22;7781;49.690;6.472;2023-09-18T10:32:45;21.30;99.90
15364;DHT22;7781;49.690;6.472;2023-09-18T10:35:17;21.30;99.90
15364;DHT22;7781;49.690;6.472;2023-09-18T10:37:48;21.10;99.90
15364;DHT22;7781;49.690;6.472;2023-09-18T10:40:19;21.20;99.90
15364;DHT22;7781;49.690;6.472;2023-09-18T10:42:57;21.20;99.90
15364;DHT22;7781;49.690;6.472;2023-09-18T10:45:27;21.20;99.90
15364;DHT22;7781;49.690;6.472;2023-09-18T10:52:16;21.40;99.90
15364;DHT22;7781;49.690;6.472;2023-09-18T10:54:46;21.50;99.90
15364;DHT22;7781;49.690;6.472;2023-09-18T10:57:15;21.60;99.90
15364;DHT22;7781;49.690;6.472;2023-09-18T10:59:45;21.90;99.90
15364;DHT22;7781;49.690;6.472;2023-09-18T11:02:14;22.00;99.90
15364;DHT22;7781;49.690;6.472;2023-09-18T11:04:44;21.90;99.90
15364;DHT22;7781;49.690;6.472;2023-09-18T11:07:19;22.10;99.90
15364;DHT22;7781;49.690;6.472;2023-09-18T11:09:49;22.30;99.90
15364;DHT22;7781;49.690;6.472;2023-09-18T11:12:18;22.60;46.60
15364;DHT22;7781;49.690;6.472;2023-09-18T11:14:57;22.70;21.20
15364;DHT22;7781;49.690;6.472;2023-09-18T11:17:35;22.90;27.00
15364;DHT22;7781;49.690;6.472;2023-09-18T11:20:06;22.70;4.30
15364;DHT22;7781;49.690;6.472;2023-09-18T11:22:39;22.40;1.00
15364;DHT22;7781;49.690;6.472;2023-09-18T11:28:15;22.20;1.00
15364;DHT22;7781;49.690;6.472;2023-09-18T11:30:53;21.80;74.90
15364;DHT22;7781;49.690;6.472;2023-09-18T11:33:30;21.70;52.80
15364;DHT22;7781;49.690;6.472;2023-09-18T11:36:04;21.90;85.40
15364;DHT22;7781;49.690;6.472;2023-09-18T11:38:35;22.50;92.70
15364;DHT22;7781;49.690;6.472;2023-09-18T11:41:21;23.00;58.20
15364;DHT22;7781;49.690;6.472;2023-09-18T11:43:51;23.40;1.00
15364;DHT22;7781;49.690;6.472;2023-09-18T11:46:21;23.90;99.90
15364;DHT22;7781;49.690;6.472;2023-09-18T11:48:52;24.10;1.00
15364;DHT22;7781;49.690;6.472;2023-09-18T11:51:22;24.40;99.90
15364;DHT22;7781;49.690;6.472;2023-09-18T11:53:56;24.80;1.00
15364;DHT22;7781;49.690;6.472;2023-09-18T11:56:26;24.90;1.00
15364;DHT22;7781;49.690;6.472;2023-09-18T11:58:56;24.70;1.00
15364;DHT22;7781;49.690;6.472;2023-09-18T12:01:33;24.80;1.00
15364;DHT22;7781;49.690;6.472;2023-09-18T12:04:04;24.60;1.00
15364;DHT22;7781;49.690;6.472;2023-09-18T12:06:39;24.50;1.00
15364;DHT22;7781;49.690;6.472;2023-09-18T12:09:09;24.70;1.00
15364;DHT22;7781;49.690;6.472;2023-09-18T12:11:41;24.90;1.00
15364;DHT22;7781;49.690;6.472;2023-09-18T12:14:10;24.90;99.90
15364;DHT22;7781;49.690;6.472;2023-09-18T12:16:43;24.60;99.90
15364;DHT22;7781;49.690;6.472;2023-09-18T12:19:19;24.70;1.00
15364;DHT22;7781;49.690;6.472;2023-09-18T12:21:47;24.70;99.90
15364;DHT22;7781;49.690;6.472;2023-09-18T12:24:21;24.80;99.90
15364;DHT22;7781;49.690;6.472;2023-09-18T12:26:49;24.90;99.90
15364;DHT22;7781;49.690;6.472;2023-09-18T12:29:19;24.90;99.90
15364;DHT22;7781;49.690;6.472;2023-09-18T12:31:49;25.00;99.90
15364;DHT22;7781;49.690;6.472;2023-09-18T12:34:20;25.50;74.10
15364;DHT22;7781;49.690;6.472;2023-09-18T12:36:52;25.80;7.40
15364;DHT22;7781;49.690;6.472;2023-09-18T12:39:21;26.10;1.00
15364;DHT22;7781;49.690;6.472;2023-09-18T12:41:51;26.40;14.50
15364;DHT22;7781;49.690;6.472;2023-09-18T12:44:21;26.20;1.00
15364;DHT22;7781;49.690;6.472;2023-09-18T12:46:51;26.20;1.00
15364;DHT22;7781;49.690;6.472;2023-09-18T12:49:20;26.30;1.00
15364;DHT22;7781;49.690;6.472;2023-09-18T12:51:56;26.40;1.00
15364;DHT22;7781;49.690;6.472;2023-09-18T12:54:41;26.70;1.00
15364;DHT22;7781;49.690;6.472;2023-09-18T12:57:14;27.10;1.00
15364;DHT22;7781;49.690;6.472;2023-09-18T12:59:44;27.10;1.00
15364;DHT22;7781;49.690;6.472;2023-09-18T13:02:17;26.80;1.00
15364;DHT22;7781;49.690;6.472;2023-09-18T13:04:51;26.80;1.00
15364;DHT22;7781;49.690;6.472;2023-09-18T13:07:21;26.80;1.00
15364;DHT22;7781;49.690;6.472;2023-09-18T13:09:59;27.10;1.00
15364;DHT22;7781;49.690;6.472;2023-09-18T13:12:40;27.20;1.00
15364;DHT22;7781;49.690;6.472;2023-09-18T13:15:08;27.40;1.00
15364;DHT22;7781;49.690;6.472;2023-09-18T13:17:41;27.60;99.90
15364;DHT22;7781;49.690;6.472;2023-09-18T13:20:15;27.80;99.90
15364;DHT22;7781;49.690;6.472;2023-09-18T13:22:49;27.20;99.90
15364;DHT22;7781;49.690;6.472;2023-09-18T13:25:21;26.80;99.90
15364;DHT22;7781;49.690;6.472;2023-09-18T13:27:50;26.40;99.90
15364;DHT22;7781;49.690;6.472;2023-09-18T13:30:19;26.30;99.90
15364;DHT22;7781;49.690;6.472;2023-09-18T13:32:50;25.50;99.90
15364;DHT22;7781;49.690;6.472;2023-09-18T13:35:20;25.50;99.90
15364;DHT22;7781;49.690;6.472;2023-09-18T13:37:50;25.90;99.90
15364;DHT22;7781;49.690;6.472;2023-09-18T13:40:20;26.10;99.90
15364;DHT22;7781;49.690;6.472;2023-09-18T13:42:49;25.80;99.90
15364;DHT22;7781;49.690;6.472;2023-09-18T13:45:19;25.40;99.90
15364;DHT22;7781;49.690;6.472;2023-09-18T13:47:47;25.00;1.00
15364;DHT22;7781;49.690;6.472;2023-09-18T13:50:18;25.60;1.00
15364;DHT22;7781;49.690;6.472;2023-09-18T13:52:48;26.40;1.00
15364;DHT22;7781;49.690;6.472;2023-09-18T13:55:17;27.00;99.90
15364;DHT22;7781;49.690;6.472;2023-09-18T13:57:47;27.00;99.90
15364;DHT22;7781;49.690;6.472;2023-09-18T14:00:16;27.30;99.90
15364;DHT22;7781;49.690;6.472;2023-09-18T14:02:45;27.20;99.90
15364;DHT22;7781;49.690;6.472;2023-09-18T14:05:14;27.40;99.90
15364;DHT22;7781;49.690;6.472;2023-09-18T14:07:46;27.30;99.90
15364;DHT22;7781;49.690;6.472;2023-09-18T14:10:15;27.40;99.90
15364;DHT22;7781;49.690;6.472;2023-09-18T14:12:46;27.10;99.90
15364;DHT22;7781;49.690;6.472;2023-09-18T14:15:14;27.00;99.90
15364;DHT22;7781;49.690;6.472;2023-09-18T14:17:43;26.80;99.90
15364;DHT22;7781;49.690;6.472;2023-09-18T14:20:11;26.50;99.90
15364;DHT22;7781;49.690;6.472;2023-09-18T14:22:40;26.90;99.90
15364;DHT22;7781;49.690;6.472;2023-09-18T14:25:10;27.40;99.90
15364;DHT22;7781;49.690;6.472;2023-09-18T14:27:39;27.60;99.90
15364;DHT22;7781;49.690;6.472;2023-09-18T14:30:08;27.50;99.90
15364;DHT22;7781;49.690;6.472;2023-09-18T14:32:37;27.50;99.90
15364;DHT22;7781;49.690;6.472;2023-09-18T14:35:06;27.60;99.90
15364;DHT22;7781;49.690;6.472;2023-09-18T14:37:36;27.60;99.90
15364;DHT22;7781;49.690;6.472;2023-09-18T14:40:06;27.10;99.90
15364;DHT22;7781;49.690;6.472;2023-09-18T14:42:41;26.50;99.90
15364;DHT22;7781;49.690;6.472;2023-09-18T14:45:10;26.00;99.90
15364;DHT22;7781;49.690;6.472;2023-09-18T14:47:41;25.30;99.90
15364;DHT22;7781;49.690;6.472;2023-09-18T14:50:09;25.10;99.90
15364;DHT22;7781;49.690;6.472;2023-09-18T14:52:38;24.70;99.90
15364;DHT22;7781;49.690;6.472;2023-09-18T14:55:09;24.70;99.90
15364;DHT22;7781;49.690;6.472;2023-09-18T14:57:41;24.80;99.90
15364;DHT22;7781;49.690;6.472;2023-09-18T15:00:11;24.90;99.90
15364;DHT22;7781;49.690;6.472;2023-09-18T15:02:41;24.70;99.90
15364;DHT22;7781;49.690;6.472;2023-09-18T15:05:10;25.10;99.90
15364;DHT22;7781;49.690;6.472;2023-09-18T15:07:42;25.60;99.90
15364;DHT22;7781;49.690;6.472;2023-09-18T15:10:10;25.80;99.90
15364;DHT22;7781;49.690;6.472;2023-09-18T15:12:40;25.40;99.90
15364;DHT22;7781;49.690;6.472;2023-09-18T15:15:09;25.30;99.90
15364;DHT22;7781;49.690;6.472;2023-09-18T15:17:38;25.30;99.90
15364;DHT22;7781;49.690;6.472;2023-09-18T15:20:08;25.00;99.90
15364;DHT22;7781;49.690;6.472;2023-09-18T15:22:39;24.80;99.90
15364;DHT22;7781;49.690;6.472;2023-09-18T15:25:08;24.80;99.90
15364;DHT22;7781;49.690;6.472;2023-09-18T15:27:38;25.10;1.00
15364;DHT22;7781;49.690;6.472;2023-09-18T15:30:10;25.40;99.90
15364;DHT22;7781;49.690;6.472;2023-09-18T15:32:48;25.40;99.90
15364;DHT22;7781;49.690;6.472;2023-09-18T15:35:18;25.40;99.90
15364;DHT22;7781;49.690;6.472;2023-09-18T15:37:46;25.20;99.90
15364;DHT22;7781;49.690;6.472;2023-09-18T15:40:17;25.10;99.90
15364;DHT22;7781;49.690;6.472;2023-09-18T15:42:46;25.10;99.90
15364;DHT22;7781;49.690;6.472;2023-09-18T15:45:16;25.20;99.90
15364;DHT22;7781;49.690;6.472;2023-09-18T15:47:45;25.30;99.90
15364;DHT22;7781;49.690;6.472;2023-09-18T15:50:13;25.40;99.90
15364;DHT22;7781;49.690;6.472;2023-09-18T15:52:44;25.40;99.90
15364;DHT22;7781;49.690;6.472;2023-09-18T15:55:13;25.30;99.90
15364;DHT22;7781;49.690;6.472;2023-09-18T15:57:42;25.30;99.90
15364;DHT22;7781;49.690;6.472;2023-09-18T16:00:13;24.80;99.90
15364;DHT22;7781;49.690;6.472;2023-09-18T16:02:46;24.70;99.90
15364;DHT22;7781;49.690;6.472;2023-09-18T16:05:16;24.50;99.90
15364;DHT22;7781;49.690;6.472;2023-09-18T16:07:45;24.30;99.90
15364;DHT22;7781;49.690;6.472;2023-09-18T16:10:14;24.30;1.00
15364;DHT22;7781;49.690;6.472;2023-09-18T16:12:44;24.20;1.00
15364;DHT22;7781;49.690;6.472;2023-09-18T16:15:12;24.10;1.00
15364;DHT22;7781;49.690;6.472;2023-09-18T16:17:43;24.00;1.00